Caneyville, Kentucky
Current Conditions -  °F | °C
As of 6:53 PM on Monday 24 Nov 2014 (Local Time) from KBWG Reporting Station
Clear Clear  
Wind Chill: 43°   Ceiling: Unl
Heat Index: 47°   Visibility: 10mi
Dew Point: 32°   Wind: 8mph
Humidity: 56%   Direction: 260°W
Pressure: 29.96"   Gusts: NA
Location:  37.42°N, 86.49°W
Report Text: KBWG 250053Z AUTO 26007KT 10SM CLR 08/00 A2996 RMK AO2 SLP144 T00830000
Loading
Personal Weather Stations






























Interactive Weather Map New forecast layout! Learn more

10-Day Weather Forecast

Advertisements
Track Severe Weather on mobile